sensor_id;sensor_type;location;lat;lon;timestamp;P1;durP1;ratioP1;P2;durP2;ratioP2
80705;SDS011;70229;48.010;7.852;2024-01-15T15:01:28;17.55;;;11.88;;
80705;SDS011;70229;48.010;7.852;2024-01-15T15:03:55;19.00;;;13.43;;
80705;SDS011;70229;48.010;7.852;2024-01-15T15:06:20;19.17;;;12.75;;
80705;SDS011;70229;48.010;7.852;2024-01-15T15:08:46;20.05;;;11.85;;
80705;SDS011;70229;48.010;7.852;2024-01-15T15:11:12;18.77;;;12.23;;
80705;SDS011;70229;48.010;7.852;2024-01-15T16:15:46;22.02;;;14.63;;
80705;SDS011;70229;48.010;7.852;2024-01-15T16:18:12;20.58;;;13.80;;
80705;SDS011;70229;48.010;7.852;2024-01-15T16:20:38;17.83;;;13.38;;
80705;SDS011;70229;48.010;7.852;2024-01-15T16:23:04;23.70;;;15.27;;
80705;SDS011;70229;48.010;7.852;2024-01-15T16:25:30;20.90;;;12.65;;
80705;SDS011;70229;48.010;7.852;2024-01-15T18:06:20;27.13;;;18.55;;
80705;SDS011;70229;48.010;7.852;2024-01-15T18:08:47;28.27;;;19.67;;
80705;SDS011;70229;48.010;7.852;2024-01-15T18:11:16;26.83;;;16.95;;
80705;SDS011;70229;48.010;7.852;2024-01-15T18:13:44;23.38;;;16.95;;
80705;SDS011;70229;48.010;7.852;2024-01-15T18:16:10;24.42;;;16.42;;
80705;SDS011;70229;48.010;7.852;2024-01-15T18:18:37;25.02;;;17.17;;
80705;SDS011;70229;48.010;7.852;2024-01-15T18:21:04;23.88;;;17.08;;
80705;SDS011;70229;48.010;7.852;2024-01-15T18:23:30;24.58;;;16.85;;
80705;SDS011;70229;48.010;7.852;2024-01-15T18:25:57;27.27;;;19.52;;
80705;SDS011;70229;48.010;7.852;2024-01-15T18:28:23;27.90;;;19.30;;
80705;SDS011;70229;48.010;7.852;2024-01-15T18:30:49;23.45;;;18.23;;
80705;SDS011;70229;48.010;7.852;2024-01-15T18:33:16;28.00;;;17.98;;
80705;SDS011;70229;48.010;7.852;2024-01-15T18:35:47;31.08;;;19.05;;
80705;SDS011;70229;48.010;7.852;2024-01-15T18:38:14;28.10;;;19.77;;
80705;SDS011;70229;48.010;7.852;2024-01-15T18:40:43;27.45;;;19.98;;
80705;SDS011;70229;48.010;7.852;2024-01-15T18:43:08;28.30;;;19.15;;
80705;SDS011;70229;48.010;7.852;2024-01-15T18:45:35;22.60;;;16.65;;
80705;SDS011;70229;48.010;7.852;2024-01-15T18:48:00;25.52;;;17.10;;
80705;SDS011;70229;48.010;7.852;2024-01-15T18:50:26;23.83;;;16.90;;
80705;SDS011;70229;48.010;7.852;2024-01-15T18:52:53;25.77;;;16.00;;
80705;SDS011;70229;48.010;7.852;2024-01-15T18:55:19;23.45;;;16.30;;
80705;SDS011;70229;48.010;7.852;2024-01-15T18:57:46;23.58;;;17.38;;
80705;SDS011;70229;48.010;7.852;2024-01-15T19:00:13;23.10;;;17.70;;
80705;SDS011;70229;48.010;7.852;2024-01-15T19:02:39;25.90;;;16.20;;
80705;SDS011;70229;48.010;7.852;2024-01-15T19:05:04;27.42;;;19.48;;
80705;SDS011;70229;48.010;7.852;2024-01-15T19:07:30;23.13;;;16.67;;
80705;SDS011;70229;48.010;7.852;2024-01-15T19:09:57;24.70;;;18.48;;
80705;SDS011;70229;48.010;7.852;2024-01-15T19:12:23;34.28;;;22.85;;
80705;SDS011;70229;48.010;7.852;2024-01-15T19:14:49;28.08;;;21.35;;
80705;SDS011;70229;48.010;7.852;2024-01-15T19:17:14;87.00;;;57.45;;
80705;SDS011;70229;48.010;7.852;2024-01-15T19:19:40;52.20;;;41.00;;
80705;SDS011;70229;48.010;7.852;2024-01-15T19:22:06;31.23;;;23.70;;
80705;SDS011;70229;48.010;7.852;2024-01-15T19:24:33;25.13;;;20.05;;
80705;SDS011;70229;48.010;7.852;2024-01-15T19:27:00;33.60;;;21.38;;
80705;SDS011;70229;48.010;7.852;2024-01-15T19:29:26;23.02;;;17.20;;
80705;SDS011;70229;48.010;7.852;2024-01-15T19:31:51;21.40;;;16.05;;
80705;SDS011;70229;48.010;7.852;2024-01-15T19:34:18;24.75;;;18.75;;
80705;SDS011;70229;48.010;7.852;2024-01-15T19:36:44;26.42;;;19.80;;
80705;SDS011;70229;48.010;7.852;2024-01-15T19:39:09;30.45;;;21.77;;
80705;SDS011;70229;48.010;7.852;2024-01-15T19:41:35;27.38;;;20.60;;
80705;SDS011;70229;48.010;7.852;2024-01-15T19:44:00;29.50;;;20.92;;
80705;SDS011;70229;48.010;7.852;2024-01-15T19:46:26;30.67;;;22.70;;
80705;SDS011;70229;48.010;7.852;2024-01-15T19:48:51;25.70;;;19.38;;
80705;SDS011;70229;48.010;7.852;2024-01-15T19:51:17;22.90;;;17.50;;
80705;SDS011;70229;48.010;7.852;2024-01-15T19:53:43;21.40;;;15.40;;
80705;SDS011;70229;48.010;7.852;2024-01-15T19:56:08;28.30;;;19.00;;
80705;SDS011;70229;48.010;7.852;2024-01-15T19:58:34;30.15;;;17.40;;
80705;SDS011;70229;48.010;7.852;2024-01-15T20:01:01;18.48;;;14.20;;
80705;SDS011;70229;48.010;7.852;2024-01-15T20:03:30;21.48;;;15.07;;
80705;SDS011;70229;48.010;7.852;2024-01-15T20:05:56;20.25;;;14.00;;
80705;SDS011;70229;48.010;7.852;2024-01-15T20:08:22;19.58;;;12.70;;
80705;SDS011;70229;48.010;7.852;2024-01-15T20:10:47;17.33;;;12.50;;
80705;SDS011;70229;48.010;7.852;2024-01-15T20:13:13;19.08;;;13.60;;
80705;SDS011;70229;48.010;7.852;2024-01-15T20:15:39;22.27;;;15.02;;
80705;SDS011;70229;48.010;7.852;2024-01-15T20:18:04;18.10;;;14.57;;
80705;SDS011;70229;48.010;7.852;2024-01-15T20:20:31;17.83;;;12.02;;
80705;SDS011;70229;48.010;7.852;2024-01-15T20:22:56;21.65;;;13.80;;
80705;SDS011;70229;48.010;7.852;2024-01-15T20:25:23;17.92;;;12.63;;
80705;SDS011;70229;48.010;7.852;2024-01-15T20:27:48;20.80;;;14.70;;
80705;SDS011;70229;48.010;7.852;2024-01-15T20:30:14;21.42;;;15.25;;
80705;SDS011;70229;48.010;7.852;2024-01-15T20:32:40;18.65;;;13.18;;
80705;SDS011;70229;48.010;7.852;2024-01-15T20:35:05;17.17;;;12.30;;
80705;SDS011;70229;48.010;7.852;2024-01-15T20:37:31;62.85;;;40.95;;
80705;SDS011;70229;48.010;7.852;2024-01-15T20:39:57;26.67;;;18.15;;
80705;SDS011;70229;48.010;7.852;2024-01-15T20:42:23;13.43;;;10.93;;
80705;SDS011;70229;48.010;7.852;2024-01-15T20:44:49;16.38;;;12.20;;
80705;SDS011;70229;48.010;7.852;2024-01-15T20:47:15;18.95;;;13.90;;
80705;SDS011;70229;48.010;7.852;2024-01-15T20:49:41;20.65;;;15.05;;
80705;SDS011;70229;48.010;7.852;2024-01-15T20:52:07;22.08;;;13.25;;
80705;SDS011;70229;48.010;7.852;2024-01-15T20:54:32;14.98;;;10.07;;
80705;SDS011;70229;48.010;7.852;2024-01-15T20:56:58;14.88;;;10.68;;
80705;SDS011;70229;48.010;7.852;2024-01-15T20:59:26;16.08;;;11.02;;
80705;SDS011;70229;48.010;7.852;2024-01-15T21:01:52;16.95;;;11.02;;
80705;SDS011;70229;48.010;7.852;2024-01-15T21:04:18;16.08;;;11.20;;
80705;SDS011;70229;48.010;7.852;2024-01-15T21:06:43;17.00;;;11.27;;
80705;SDS011;70229;48.010;7.852;2024-01-15T21:09:09;18.85;;;13.68;;
80705;SDS011;70229;48.010;7.852;2024-01-15T21:11:35;15.43;;;12.27;;
80705;SDS011;70229;48.010;7.852;2024-01-15T21:14:00;14.40;;;10.25;;
80705;SDS011;70229;48.010;7.852;2024-01-15T21:16:26;17.13;;;9.82;;
80705;SDS011;70229;48.010;7.852;2024-01-15T21:18:51;15.50;;;10.23;;
80705;SDS011;70229;48.010;7.852;2024-01-15T21:21:17;17.00;;;12.07;;
80705;SDS011;70229;48.010;7.852;2024-01-15T21:23:43;19.23;;;13.20;;
80705;SDS011;70229;48.010;7.852;2024-01-15T21:26:09;14.45;;;10.98;;
80705;SDS011;70229;48.010;7.852;2024-01-15T21:28:35;13.32;;;10.77;;
80705;SDS011;70229;48.010;7.852;2024-01-15T21:31:00;14.50;;;9.10;;
80705;SDS011;70229;48.010;7.852;2024-01-15T21:33:26;18.15;;;12.38;;
80705;SDS011;70229;48.010;7.852;2024-01-15T21:35:56;20.10;;;11.45;;
80705;SDS011;70229;48.010;7.852;2024-01-15T21:38:22;14.38;;;11.00;;
80705;SDS011;70229;48.010;7.852;2024-01-15T21:40:47;14.75;;;9.93;;
80705;SDS011;70229;48.010;7.852;2024-01-15T21:43:13;15.27;;;10.77;;
80705;SDS011;70229;48.010;7.852;2024-01-15T21:45:39;15.55;;;12.73;;
80705;SDS011;70229;48.010;7.852;2024-01-15T21:48:05;10.50;;;7.35;;
80705;SDS011;70229;48.010;7.852;2024-01-15T21:50:30;13.73;;;8.80;;
80705;SDS011;70229;48.010;7.852;2024-01-15T21:52:57;10.38;;;8.60;;
80705;SDS011;70229;48.010;7.852;2024-01-15T21:55:22;10.20;;;7.38;;
80705;SDS011;70229;48.010;7.852;2024-01-15T21:57:48;13.73;;;9.52;;
80705;SDS011;70229;48.010;7.852;2024-01-15T22:00:14;14.02;;;9.32;;
80705;SDS011;70229;48.010;7.852;2024-01-15T22:02:41;13.95;;;8.43;;
80705;SDS011;70229;48.010;7.852;2024-01-15T22:05:08;12.60;;;8.02;;
80705;SDS011;70229;48.010;7.852;2024-01-15T22:07:34;12.02;;;9.40;;
80705;SDS011;70229;48.010;7.852;2024-01-15T22:10:01;11.00;;;8.45;;
80705;SDS011;70229;48.010;7.852;2024-01-15T22:12:27;9.65;;;7.05;;
80705;SDS011;70229;48.010;7.852;2024-01-15T22:14:53;17.00;;;11.85;;
80705;SDS011;70229;48.010;7.852;2024-01-15T22:17:18;11.55;;;9.10;;
80705;SDS011;70229;48.010;7.852;2024-01-15T22:19:44;14.48;;;8.15;;
80705;SDS011;70229;48.010;7.852;2024-01-15T22:22:10;12.13;;;8.73;;
80705;SDS011;70229;48.010;7.852;2024-01-15T22:24:36;10.95;;;6.85;;
80705;SDS011;70229;48.010;7.852;2024-01-15T22:27:03;10.60;;;8.07;;
80705;SDS011;70229;48.010;7.852;2024-01-15T22:29:29;11.40;;;8.35;;
80705;SDS011;70229;48.010;7.852;2024-01-15T22:31:55;10.80;;;8.05;;
80705;SDS011;70229;48.010;7.852;2024-01-15T22:34:20;11.23;;;7.55;;
80705;SDS011;70229;48.010;7.852;2024-01-15T22:36:46;12.18;;;8.32;;
80705;SDS011;70229;48.010;7.852;2024-01-15T22:39:11;9.27;;;6.68;;
80705;SDS011;70229;48.010;7.852;2024-01-15T22:41:38;13.10;;;7.85;;
80705;SDS011;70229;48.010;7.852;2024-01-15T22:44:04;9.88;;;7.50;;
80705;SDS011;70229;48.010;7.852;2024-01-15T22:46:29;9.82;;;6.97;;
80705;SDS011;70229;48.010;7.852;2024-01-15T22:48:55;11.43;;;7.80;;
80705;SDS011;70229;48.010;7.852;2024-01-15T22:51:20;9.82;;;5.90;;
80705;SDS011;70229;48.010;7.852;2024-01-15T22:53:46;11.98;;;6.00;;
80705;SDS011;70229;48.010;7.852;2024-01-15T22:56:11;10.93;;;5.82;;
80705;SDS011;70229;48.010;7.852;2024-01-15T22:58:37;9.73;;;5.22;;
80705;SDS011;70229;48.010;7.852;2024-01-15T23:01:03;9.00;;;6.00;;
80705;SDS011;70229;48.010;7.852;2024-01-15T23:03:28;10.45;;;6.63;;
80705;SDS011;70229;48.010;7.852;2024-01-15T23:05:54;8.55;;;5.78;;
80705;SDS011;70229;48.010;7.852;2024-01-15T23:08:20;9.52;;;5.72;;
80705;SDS011;70229;48.010;7.852;2024-01-15T23:10:46;10.32;;;5.80;;
80705;SDS011;70229;48.010;7.852;2024-01-15T23:13:12;9.52;;;5.70;;
80705;SDS011;70229;48.010;7.852;2024-01-15T23:15:38;10.95;;;6.00;;
80705;SDS011;70229;48.010;7.852;2024-01-15T23:18:04;10.32;;;5.10;;
80705;SDS011;70229;48.010;7.852;2024-01-15T23:20:30;8.35;;;4.97;;
80705;SDS011;70229;48.010;7.852;2024-01-15T23:22:55;7.15;;;4.63;;
80705;SDS011;70229;48.010;7.852;2024-01-15T23:25:21;11.13;;;5.35;;
80705;SDS011;70229;48.010;7.852;2024-01-15T23:27:47;8.25;;;3.97;;
80705;SDS011;70229;48.010;7.852;2024-01-15T23:30:12;7.05;;;4.65;;
80705;SDS011;70229;48.010;7.852;2024-01-15T23:32:38;9.82;;;5.57;;
80705;SDS011;70229;48.010;7.852;2024-01-15T23:35:04;9.73;;;4.70;;
80705;SDS011;70229;48.010;7.852;2024-01-15T23:37:29;7.03;;;4.47;;
80705;SDS011;70229;48.010;7.852;2024-01-15T23:39:55;8.00;;;4.70;;
80705;SDS011;70229;48.010;7.852;2024-01-15T23:42:21;8.88;;;5.15;;
80705;SDS011;70229;48.010;7.852;2024-01-15T23:44:47;7.25;;;4.78;;
80705;SDS011;70229;48.010;7.852;2024-01-15T23:47:14;8.90;;;3.80;;
80705;SDS011;70229;48.010;7.852;2024-01-15T23:49:40;7.40;;;4.65;;
80705;SDS011;70229;48.010;7.852;2024-01-15T23:52:05;7.40;;;4.38;;
80705;SDS011;70229;48.010;7.852;2024-01-15T23:54:31;7.32;;;3.88;;
80705;SDS011;70229;48.010;7.852;2024-01-15T23:57:00;9.52;;;4.82;;
80705;SDS011;70229;48.010;7.852;2024-01-15T23:59:26;8.48;;;4.63;;
